Time;durP1;ratioP1;P1;durP2;ratioP2;P2;SDS_P1;SDS_P2;PMS_P1;PMS_P2;Temp;Humidity;BMP_temperature;BMP_pressure;BME280_temperature;BME280_humidity;BME280_pressure;Samples;Min_cycle;Max_cycle;Signal;HPM_P1;HPM_P2
2021/07/20 00:01:19;;;;;;;18.57;15.30;;;17.60;78.90;;;;;;5077864;28;20468;-79
2021/07/20 00:03:49;;;;;;;21.00;16.83;;;17.60;79.20;;;;;;5079091;28;20627;-79
2021/07/20 00:06:16;;;;;;;22.50;14.57;;;17.60;79.20;;;;;;5079952;28;20409;-79
2021/07/20 00:08:43;;;;;;;21.10;16.40;;;17.50;79.20;;;;;;5079593;28;20477;-80
2021/07/20 00:11:10;;;;;;;20.63;14.23;;;17.50;79.60;;;;;;5078635;28;20452;-80
2021/07/20 00:13:37;;;;;;;21.13;15.70;;;17.40;79.20;;;;;;5065372;28;20477;-78
2021/07/20 00:16:05;;;;;;;25.27;16.70;;;17.50;79.10;;;;;;5056244;28;20457;-78
2021/07/20 00:18:36;;;;;;;18.70;15.67;;;17.40;79.00;;;;;;5056055;28;20950;-78
2021/07/20 00:21:06;;;;;;;19.20;14.87;;;17.40;79.20;;;;;;5056652;28;20484;-78
2021/07/20 00:23:33;;;;;;;20.30;15.30;;;17.40;80.00;;;;;;5068802;28;20412;-78
2021/07/20 00:26:00;;;;;;;19.70;16.23;;;17.30;80.80;;;;;;5055009;28;20513;-78
2021/07/20 00:28:27;;;;;;;23.13;16.30;;;17.30;81.90;;;;;;5054520;28;20477;-78
2021/07/20 00:30:54;;;;;;;22.03;16.20;;;17.30;82.90;;;;;;5054566;28;20988;-79
2021/07/20 00:33:21;;;;;;;23.50;17.70;;;17.30;82.90;;;;;;5053942;28;21012;-79
2021/07/20 00:35:48;;;;;;;19.70;15.83;;;17.30;82.90;;;;;;5054885;28;20424;-78
2021/07/20 00:38:17;;;;;;;20.77;15.57;;;17.30;82.90;;;;;;5054823;28;20442;-79
2021/07/20 00:40:45;;;;;;;21.27;16.23;;;17.30;82.90;;;;;;5056523;28;20456;-78
2021/07/20 00:43:12;;;;;;;23.40;15.73;;;17.30;83.50;;;;;;5055475;28;20551;-79
2021/07/20 00:45:40;;;;;;;20.33;14.73;;;17.30;82.90;;;;;;5055204;28;20534;-79
2021/07/20 00:48:07;;;;;;;18.77;14.43;;;17.20;82.10;;;;;;5054109;28;21004;-79
2021/07/20 00:50:39;;;;;;;21.17;14.40;;;17.30;80.60;;;;;;5054671;28;20559;-78
2021/07/20 00:53:06;;;;;;;22.83;13.60;;;17.20;79.60;;;;;;5054146;28;20475;-78
2021/07/20 00:55:35;;;;;;;19.40;14.20;;;17.20;78.90;;;;;;5054556;28;20455;-79
2021/07/20 00:58:03;;;;;;;18.43;14.47;;;17.10;79.30;;;;;;5054891;28;20853;-79
2021/07/20 01:00:30;;;;;;;21.43;15.17;;;17.10;79.70;;;;;;5055062;28;20452;-79
2021/07/20 01:02:57;;;;;;;28.97;16.70;;;17.10;80.50;;;;;;5054877;28;20421;-79
2021/07/20 01:05:26;;;;;;;19.73;15.23;;;17.00;81.50;;;;;;5056214;28;20428;-79
2021/07/20 01:07:53;;;;;;;19.40;15.80;;;17.00;82.70;;;;;;5055377;28;20536;-79
2021/07/20 01:10:23;;;;;;;20.17;15.97;;;16.90;82.60;;;;;;5055607;28;21053;-79
2021/07/20 01:12:52;;;;;;;19.47;14.73;;;16.90;82.60;;;;;;5056980;28;20490;-79
2021/07/20 01:15:23;;;;;;;19.27;15.27;;;16.80;83.30;;;;;;5054262;28;20459;-79
2021/07/20 01:17:53;;;;;;;18.50;15.13;;;16.80;82.50;;;;;;5055019;28;20548;-78
2021/07/20 01:20:24;;;;;;;21.90;16.17;;;16.90;82.60;;;;;;5055475;28;20519;-79
2021/07/20 01:22:58;;;;;;;26.10;15.33;;;16.90;82.60;;;;;;5054752;28;20453;-78
2021/07/20 01:25:27;;;;;;;22.37;16.20;;;16.90;82.10;;;;;;5054401;28;20499;-77
2021/07/20 01:27:58;;;;;;;18.93;14.57;;;16.90;82.60;;;;;;5054526;28;20458;-78
2021/07/20 01:30:26;;;;;;;18.83;15.30;;;16.90;82.60;;;;;;5054327;28;20884;-79
2021/07/20 01:32:55;;;;;;;20.40;15.43;;;16.80;83.50;;;;;;5053902;28;20492;-78
2021/07/20 01:35:23;;;;;;;26.20;16.73;;;16.80;84.00;;;;;;5053805;28;20482;-78
2021/07/20 01:37:52;;;;;;;21.10;15.77;;;16.70;84.60;;;;;;5054902;28;20702;-78
2021/07/20 01:40:20;;;;;;;21.30;15.97;;;16.70;85.30;;;;;;5055215;28;20554;-79
2021/07/20 01:42:49;;;;;;;26.37;17.27;;;16.60;86.00;;;;;;5056995;28;20937;-79
2021/07/20 01:45:16;;;;;;;23.87;16.30;;;16.60;86.20;;;;;;5068791;28;20821;-79
2021/07/20 01:47:46;;;;;;;21.00;17.00;;;16.60;86.70;;;;;;5071869;28;20773;-79
2021/07/20 01:50:15;;;;;;;20.37;14.93;;;16.50;86.70;;;;;;5060809;28;20451;-79
2021/07/20 01:52:43;;;;;;;19.70;16.17;;;16.50;88.20;;;;;;5067719;28;20436;-78
2021/07/20 01:55:13;;;;;;;23.63;16.27;;;16.50;88.90;;;;;;5067783;28;20473;-80
2021/07/20 01:57:40;;;;;;;21.60;15.57;;;16.50;88.40;;;;;;5055356;28;20427;-79
2021/07/20 02:00:15;;;;;;;19.27;15.27;;;16.50;88.20;;;;;;5055734;28;20508;-79
2021/07/20 02:02:55;;;;;;;19.07;15.47;;;16.50;88.50;;;;;;5058982;28;20536;-79
2021/07/20 02:08:27;;;;;;;20.40;15.67;;;16.50;89.70;;;;;;5075562;28;20391;-79
2021/07/20 02:10:57;;;;;;;21.13;16.93;;;16.40;90.20;;;;;;5071119;28;20516;-79
2021/07/20 02:13:26;;;;;;;19.83;15.20;;;16.30;90.00;;;;;;5055316;28;20485;-79
2021/07/20 02:15:55;;;;;;;21.53;16.80;;;16.30;90.10;;;;;;5054498;28;20456;-78
2021/07/20 02:18:26;;;;;;;21.07;15.50;;;16.30;90.10;;;;;;5056778;28;20981;-78
2021/07/20 02:20:54;;;;;;;22.23;15.47;;;16.30;90.10;;;;;;5058197;28;20559;-78
2021/07/20 02:23:21;;;;;;;20.13;14.63;;;16.20;90.10;;;;;;5056568;28;20518;-79
2021/07/20 02:25:49;;;;;;;26.00;17.90;;;16.10;90.80;;;;;;5054426;28;20507;-79
2021/07/20 02:28:19;;;;;;;24.27;16.07;;;16.10;92.60;;;;;;5054720;28;20459;-78
2021/07/20 02:30:48;;;;;;;21.13;15.50;;;16.00;93.20;;;;;;5054922;28;20861;-78
2021/07/20 02:33:17;;;;;;;22.27;17.00;;;16.00;93.70;;;;;;5054812;28;20799;-78
2021/07/20 02:35:45;;;;;;;23.90;16.73;;;15.90;94.90;;;;;;5055720;28;20438;-78
2021/07/20 02:38:12;;;;;;;22.02;16.75;;;15.90;95.40;;;;;;5056547;28;20431;-79
2021/07/20 02:40:40;;;;;;;22.03;17.23;;;15.80;95.90;;;;;;5055425;28;20769;-78
2021/07/20 02:43:08;;;;;;;21.27;15.77;;;15.80;96.00;;;;;;5055156;28;20506;-78
2021/07/20 02:45:38;;;;;;;27.80;16.97;;;15.80;96.00;;;;;;5056427;28;20241;-78
2021/07/20 02:48:06;;;;;;;22.07;16.70;;;15.70;96.10;;;;;;5056630;28;20522;-78
2021/07/20 02:50:35;;;;;;;21.20;15.80;;;15.70;96.20;;;;;;5056948;28;21008;-78
2021/07/20 02:53:02;;;;;;;21.63;17.67;;;15.70;96.50;;;;;;5056872;28;20443;-79
2021/07/20 02:55:31;;;;;;;24.33;16.97;;;15.70;96.60;;;;;;5055322;28;20567;-78
2021/07/20 02:57:59;;;;;;;25.55;18.15;;;15.70;96.60;;;;;;5053869;28;20531;-79
2021/07/20 03:00:26;;;;;;;22.33;15.27;;;15.70;96.50;;;;;;5054123;28;20231;-78
2021/07/20 03:02:54;;;;;;;28.67;18.50;;;15.70;96.70;;;;;;5054308;28;20298;-79
2021/07/20 03:05:21;;;;;;;21.83;16.43;;;15.70;96.90;;;;;;5071673;28;20464;-79
2021/07/20 03:07:54;;;;;;;22.80;16.33;;;15.60;97.20;;;;;;5067192;28;20419;-79
2021/07/20 03:10:22;;;;;;;25.08;16.92;;;15.60;98.00;;;;;;5064868;28;20510;-78
2021/07/20 03:12:52;;;;;;;23.33;16.53;;;15.60;98.10;;;;;;5066171;28;20221;-79
2021/07/20 03:15:19;;;;;;;22.00;16.45;;;15.60;98.50;;;;;;5067128;28;20463;-78
2021/07/20 03:17:49;;;;;;;22.97;17.77;;;15.60;99.00;;;;;;5067025;28;20241;-79
2021/07/20 03:20:17;;;;;;;21.03;15.47;;;15.50;99.00;;;;;;5064958;28;20448;-79
2021/07/20 03:22:44;;;;;;;29.27;17.23;;;15.50;99.00;;;;;;5065979;28;20431;-79
2021/07/20 03:25:16;;;;;;;20.27;16.63;;;15.50;99.00;;;;;;5068912;28;20439;-79
2021/07/20 03:27:44;;;;;;;24.37;17.73;;;15.40;99.00;;;;;;5074582;28;20456;-81
2021/07/20 03:30:12;;;;;;;23.90;17.40;;;15.40;99.00;;;;;;5073166;28;20465;-78
2021/07/20 03:32:44;;;;;;;24.33;16.93;;;15.40;99.80;;;;;;5077146;28;20458;-77
2021/07/20 03:35:14;;;;;;;22.50;17.57;;;15.40;99.70;;;;;;5078718;28;20438;-78
2021/07/20 03:37:41;;;;;;;20.97;15.30;;;15.40;98.90;;;;;;5080019;28;20466;-79
2021/07/20 03:40:10;;;;;;;24.20;17.87;;;15.40;98.80;;;;;;5078063;28;20431;-80
2021/07/20 03:42:40;;;;;;;21.73;15.97;;;15.40;97.10;;;;;;5076514;28;20434;-78
2021/07/20 03:45:09;;;;;;;22.57;16.50;;;15.40;96.80;;;;;;5078664;28;20414;-80
2021/07/20 03:47:37;;;;;;;25.02;18.30;;;15.40;96.60;;;;;;5063608;28;20559;-80
2021/07/20 03:50:05;;;;;;;22.20;16.40;;;15.40;96.80;;;;;;5078218;28;20187;-81
2021/07/20 03:52:34;;;;;;;23.50;17.17;;;15.30;97.10;;;;;;5078455;28;20486;-79
2021/07/20 03:55:01;;;;;;;22.33;17.33;;;15.30;97.50;;;;;;5068124;28;20483;-80
2021/07/20 03:57:29;;;;;;;25.43;17.90;;;15.30;97.60;;;;;;5061051;28;20464;-80
2021/07/20 04:00:01;;;;;;;19.80;15.87;;;15.20;97.70;;;;;;5060492;28;20474;-80
2021/07/20 04:02:31;;;;;;;24.15;16.90;;;15.20;97.80;;;;;;5061599;28;20489;-80
2021/07/20 04:05:00;;;;;;;23.50;14.95;;;15.20;98.10;;;;;;5067156;28;20199;-79
2021/07/20 04:07:27;;;;;;;22.13;16.47;;;15.20;98.10;;;;;;5062580;28;20219;-79
2021/07/20 04:09:55;;;;;;;22.63;16.93;;;15.20;98.10;;;;;;5061171;28;20539;-80
2021/07/20 04:12:22;;;;;;;24.60;17.37;;;15.20;97.90;;;;;;5061108;28;20937;-80
2021/07/20 04:14:51;;;;;;;20.50;16.20;;;15.20;98.20;;;;;;5060058;28;20459;-79
2021/07/20 04:17:21;;;;;;;23.48;16.00;;;15.20;98.30;;;;;;5061138;28;20494;-80
2021/07/20 04:19:48;;;;;;;23.70;16.17;;;15.20;98.30;;;;;;5074773;28;20190;-80
2021/07/20 04:22:17;;;;;;;23.30;16.87;;;15.30;97.90;;;;;;5077798;28;20461;-80
2021/07/20 04:24:45;;;;;;;22.90;15.13;;;15.30;97.80;;;;;;5060468;28;20440;-80
2021/07/20 04:27:13;;;;;;;24.63;16.80;;;15.30;97.30;;;;;;5066921;28;20210;-78
2021/07/20 04:29:40;;;;;;;20.20;16.57;;;15.40;97.10;;;;;;5077408;28;20206;-78
2021/07/20 04:32:08;;;;;;;22.27;15.73;;;15.40;97.10;;;;;;5072242;28;20469;-80
2021/07/20 04:34:38;;;;;;;23.10;15.00;;;15.50;97.20;;;;;;5065132;28;20233;-80
2021/07/20 04:37:07;;;;;;;20.20;14.90;;;15.60;97.20;;;;;;5062049;28;20523;-80
2021/07/20 04:39:36;;;;;;;23.50;16.60;;;15.70;96.90;;;;;;5063954;28;20435;-80
2021/07/20 04:42:04;;;;;;;18.30;14.77;;;15.80;95.60;;;;;;5061441;28;20525;-80
2021/07/20 04:44:32;;;;;;;20.93;17.50;;;15.90;93.70;;;;;;5062054;28;20529;-79
2021/07/20 04:46:59;;;;;;;20.03;14.40;;;16.00;93.70;;;;;;5062587;28;20455;-81
2021/07/20 04:49:26;;;;;;;21.10;15.03;;;16.00;92.00;;;;;;5062472;28;20461;-80
2021/07/20 04:51:55;;;;;;;22.03;16.20;;;16.10;90.80;;;;;;5062661;28;20525;-80
2021/07/20 04:54:24;;;;;;;20.03;15.63;;;16.20;89.60;;;;;;5061415;28;20467;-80
2021/07/20 04:56:51;;;;;;;20.00;14.90;;;16.30;88.40;;;;;;5062908;28;20932;-80
2021/07/20 04:59:18;;;;;;;19.70;14.83;;;16.40;84.30;;;;;;5062695;28;20483;-80
2021/07/20 05:01:47;;;;;;;21.20;14.90;;;16.40;83.30;;;;;;5062069;28;20501;-82
2021/07/20 05:04:14;;;;;;;17.00;13.57;;;16.40;82.80;;;;;;5061198;28;20468;-80
2021/07/20 05:06:42;;;;;;;20.00;13.80;;;16.30;81.00;;;;;;5065136;28;20876;-81
2021/07/20 05:09:11;;;;;;;17.20;13.40;;;16.30;81.50;;;;;;5064057;28;20453;-80
2021/07/20 05:11:38;;;;;;;20.20;14.70;;;16.40;82.10;;;;;;5117722;22;20491;-84
2021/07/20 05:14:07;;;;;;;17.27;13.43;;;16.40;80.60;;;;;;5117595;27;20418;-82
2021/07/20 05:16:35;;;;;;;21.47;14.77;;;16.50;80.00;;;;;;5117489;27;20472;-83
2021/07/20 05:19:02;;;;;;;19.10;13.53;;;16.60;78.90;;;;;;5117436;28;20456;-78
2021/07/20 05:21:30;;;;;;;17.20;13.60;;;16.90;80.20;;;;;;5117270;27;20462;-79
2021/07/20 05:23:58;;;;;;;19.80;14.17;;;17.20;75.60;;;;;;5118265;27;20487;-79
2021/07/20 05:26:27;;;;;;;22.00;14.37;;;17.30;73.50;;;;;;5118555;27;20426;-80
2021/07/20 05:28:55;;;;;;;20.60;13.87;;;17.30;73.40;;;;;;5118734;27;20409;-80
2021/07/20 05:31:26;;;;;;;21.27;13.33;;;17.70;72.60;;;;;;5118227;27;20471;-78
2021/07/20 05:33:53;;;;;;;18.73;12.80;;;18.40;64.80;;;;;;5100387;28;20483;-78
2021/07/20 05:36:20;;;;;;;17.67;13.07;;;18.70;62.90;;;;;;5118419;27;20485;-78
2021/07/20 05:38:47;;;;;;;18.40;14.17;;;18.40;62.80;;;;;;5118530;27;20442;-76
2021/07/20 05:41:14;;;;;;;18.10;13.67;;;18.40;64.90;;;;;;5117744;27;20461;-77
2021/07/20 05:43:43;;;;;;;25.13;13.63;;;18.80;61.50;;;;;;5117783;27;20435;-76
2021/07/20 05:46:10;;;;;;;17.50;12.83;;;19.50;59.80;;;;;;5116385;27;20421;-80
2021/07/20 05:48:38;;;;;;;19.97;13.30;;;19.80;57.10;;;;;;5108469;28;20458;-80
2021/07/20 05:51:05;;;;;;;21.30;12.43;;;19.40;58.00;;;;;;5114845;27;20468;-80
2021/07/20 05:53:33;;;;;;;18.77;14.00;;;19.20;57.90;;;;;;5102853;28;20497;-79
2021/07/20 05:56:04;;;;;;;17.73;13.17;;;19.10;57.80;;;;;;5116904;27;20448;-80
2021/07/20 05:58:32;;;;;;;15.03;12.40;;;19.40;57.90;;;;;;5116451;27;20427;-80
2021/07/20 06:01:02;;;;;;;19.87;13.20;;;19.70;55.40;;;;;;5117765;27;20433;-81
2021/07/20 06:03:32;;;;;;;15.33;12.20;;;19.20;56.40;;;;;;5117414;27;20421;-80
2021/07/20 06:06:00;;;;;;;15.20;12.33;;;19.00;57.60;;;;;;5117601;27;20443;-82
2021/07/20 06:08:28;;;;;;;17.33;12.40;;;19.60;55.60;;;;;;5117538;27;20418;-81
2021/07/20 06:10:58;;;;;;;16.03;12.60;;;20.20;52.50;;;;;;5117246;27;20466;-81
2021/07/20 06:13:32;;;;;;;16.40;12.60;;;19.80;53.70;;;;;;5115247;27;20409;-80
2021/07/20 06:16:01;;;;;;;15.07;12.50;;;19.60;54.50;;;;;;5116548;27;20520;-79
2021/07/20 06:18:29;;;;;;;17.80;12.80;;;19.90;53.00;;;;;;5117427;27;20450;-79
2021/07/20 06:21:05;;;;;;;15.50;12.63;;;19.90;54.50;;;;;;5116140;27;20466;-79
2021/07/20 06:23:36;;;;;;;16.27;13.07;;;20.20;52.90;;;;;;5098382;28;20429;-79
2021/07/20 06:26:03;;;;;;;21.37;12.93;;;19.90;53.60;;;;;;5099248;28;20911;-80
2021/07/20 06:28:31;;;;;;;19.50;13.37;;;20.20;53.70;;;;;;5108844;28;20451;-80
2021/07/20 06:31:00;;;;;;;15.13;12.23;;;20.30;51.30;;;;;;5097976;28;20445;-81
2021/07/20 06:33:28;;;;;;;18.10;13.73;;;20.00;52.80;;;;;;5101125;28;20997;-80
2021/07/20 06:35:56;;;;;;;15.47;12.53;;;19.90;54.20;;;;;;5099157;28;20457;-79
2021/07/20 06:38:24;;;;;;;17.23;12.93;;;19.80;53.60;;;;;;5098599;28;20451;-81
2021/07/20 06:40:53;;;;;;;20.00;13.43;;;20.30;52.60;;;;;;5098907;28;20544;-80
2021/07/20 06:43:20;;;;;;;19.03;13.33;;;20.00;52.80;;;;;;5097520;28;20596;-80
2021/07/20 06:45:48;;;;;;;14.30;12.40;;;20.00;52.90;;;;;;5103251;28;20460;-81
2021/07/20 06:48:19;;;;;;;17.17;12.50;;;20.40;52.50;;;;;;5111115;28;20422;-80
2021/07/20 06:50:47;;;;;;;18.00;11.83;;;21.00;49.80;;;;;;5109937;28;20907;-80
2021/07/20 06:53:15;;;;;;;16.53;12.00;;;20.90;49.70;;;;;;5104669;28;20444;-79
2021/07/20 06:55:46;;;;;;;19.00;13.50;;;20.50;50.10;;;;;;5104269;28;20465;-79
2021/07/20 06:58:14;;;;;;;17.97;12.23;;;20.40;50.20;;;;;;5105994;28;20462;-81
2021/07/20 07:00:44;;;;;;;18.87;12.57;;;20.10;51.60;;;;;;5116287;28;20468;-80
2021/07/20 07:03:13;;;;;;;16.80;12.90;;;19.90;52.60;;;;;;5120043;27;20463;-79
2021/07/20 07:05:41;;;;;;;17.37;12.30;;;20.10;52.30;;;;;;5119862;28;20415;-78
2021/07/20 07:08:10;;;;;;;19.57;13.17;;;20.20;51.90;;;;;;5121127;27;20408;-81
2021/07/20 07:10:38;;;;;;;16.93;13.33;;;20.10;52.60;;;;;;5120322;27;20445;-80
2021/07/20 07:13:08;;;;;;;18.17;13.70;;;19.50;54.80;;;;;;5118028;27;20444;-80
2021/07/20 07:15:36;;;;;;;17.07;12.97;;;19.40;55.30;;;;;;5116722;27;20552;-80
2021/07/20 07:18:04;;;;;;;16.17;12.20;;;19.30;55.70;;;;;;5119732;27;20948;-80
2021/07/20 07:20:31;;;;;;;19.07;13.33;;;19.30;56.10;;;;;;5116072;28;20441;-79
2021/07/20 07:23:02;;;;;;;18.97;13.10;;;19.70;54.70;;;;;;5113322;28;20441;-79
2021/07/20 07:25:30;;;;;;;16.40;12.20;;;19.50;56.00;;;;;;5118539;27;20425;-81
2021/07/20 07:27:58;;;;;;;15.00;11.90;;;19.70;54.80;;;;;;5119810;27;20429;-80
2021/07/20 07:30:26;;;;;;;17.97;12.03;;;19.90;54.60;;;;;;5120076;28;20454;-80
2021/07/20 07:32:58;;;;;;;16.20;12.37;;;19.90;54.10;;;;;;5119082;28;20470;-80
2021/07/20 07:35:27;;;;;;;15.83;12.40;;;20.10;52.60;;;;;;5114728;28;20468;-82
2021/07/20 07:37:57;;;;;;;14.73;11.73;;;20.00;52.60;;;;;;5119200;28;20453;-80
2021/07/20 07:40:27;;;;;;;14.87;11.37;;;20.00;52.30;;;;;;5117101;28;20434;-79
2021/07/20 07:42:57;;;;;;;14.90;11.30;;;19.80;52.50;;;;;;5115000;28;20476;-80
2021/07/20 07:45:24;;;;;;;14.50;11.33;;;19.80;52.40;;;;;;5116012;28;20442;-80
2021/07/20 07:47:52;;;;;;;17.60;11.70;;;19.90;51.70;;;;;;5106291;28;20458;-80
2021/07/20 07:50:20;;;;;;;12.73;10.10;;;20.00;50.70;;;;;;5102509;28;20470;-81
2021/07/20 07:52:47;;;;;;;15.00;11.30;;;19.60;51.10;;;;;;5103094;28;20453;-80
2021/07/20 07:55:16;;;;;;;15.10;11.27;;;19.70;51.60;;;;;;5106041;28;20486;-81
2021/07/20 07:57:45;;;;;;;14.07;11.53;;;20.00;52.00;;;;;;5105241;28;20458;-80
2021/07/20 08:00:13;;;;;;;14.20;11.30;;;20.30;50.70;;;;;;5118069;27;20449;-81
2021/07/20 08:02:48;;;;;;;14.73;10.30;;;20.50;49.50;;;;;;5102510;28;20516;-79
2021/07/20 08:05:16;;;;;;;16.00;10.97;;;20.60;49.40;;;;;;5106115;28;20446;-78
2021/07/20 08:07:44;;;;;;;16.87;11.47;;;20.50;49.40;;;;;;5098666;28;20960;-77
2021/07/20 08:10:13;;;;;;;13.47;10.50;;;20.60;49.40;;;;;;5099451;28;20928;-81
2021/07/20 08:12:42;;;;;;;16.87;11.37;;;20.70;49.50;;;;;;5103457;28;20417;-79
2021/07/20 08:15:13;;;;;;;13.90;11.73;;;20.30;50.80;;;;;;5101958;28;20528;-80
2021/07/20 08:20:30;;;;;;;12.50;10.20;;;20.50;50.50;;;;;;5102391;28;20459;-80
2021/07/20 08:22:57;;;;;;;14.07;11.03;;;20.80;49.60;;;;;;5105086;28;20451;-80
2021/07/20 08:25:30;;;;;;;15.73;10.80;;;20.90;48.10;;;;;;5107547;28;20467;-82
2021/07/20 08:28:04;;;;;;;13.70;10.43;;;20.90;48.20;;;;;;5111883;28;20421;-79
2021/07/20 08:30:35;;;;;;;12.93;10.93;;;21.10;47.00;;;;;;5106202;28;20469;-80
2021/07/20 08:33:05;;;;;;;14.30;10.83;;;21.20;47.10;;;;;;5112863;28;20452;-79
2021/07/20 08:35:33;;;;;;;12.90;10.53;;;21.20;47.40;;;;;;5114464;28;20526;-80
2021/07/20 08:38:07;;;;;;;13.10;10.50;;;21.20;46.10;;;;;;5117421;28;20451;-80
2021/07/20 08:40:46;;;;;;;19.73;10.90;;;21.30;46.00;;;;;;5117213;28;20850;-81
2021/07/20 08:43:22;;;;;;;12.50;10.47;;;21.40;46.00;;;;;;5104507;28;20481;-80
2021/07/20 08:46:10;;;;;;;16.10;10.93;;;21.60;46.10;;;;;;5103124;28;20417;-80
2021/07/20 08:48:47;;;;;;;12.77;10.00;;;21.30;46.50;;;;;;5099237;28;20430;-80
2021/07/20 08:51:19;;;;;;;16.93;10.60;;;21.50;46.50;;;;;;5101390;28;20501;-81
2021/07/20 08:53:54;;;;;;;13.93;10.43;;;21.70;44.70;;;;;;5101076;28;20429;-82
2021/07/20 08:56:26;;;;;;;11.80;10.60;;;21.80;44.50;;;;;;5101951;28;20522;-80
2021/07/20 08:59:00;;;;;;;16.33;10.30;;;22.00;43.80;;;;;;5107322;28;20426;-81
2021/07/20 09:01:36;;;;;;;12.90;10.67;;;22.00;42.60;;;;;;5106392;28;20985;-78
2021/07/20 09:04:08;;;;;;;12.27;10.07;;;22.10;42.70;;;;;;5099162;28;20428;-77
2021/07/20 09:06:42;;;;;;;16.57;10.53;;;21.60;43.10;;;;;;5096281;28;20522;-78
2021/07/20 09:09:19;;;;;;;13.17;10.00;;;21.50;44.00;;;;;;5099384;28;20425;-79
2021/07/20 09:11:51;;;;;;;11.60;10.17;;;21.80;44.00;;;;;;5098666;28;20452;-78
2021/07/20 09:14:27;;;;;;;15.03;10.77;;;22.00;43.40;;;;;;5099336;28;20461;-80
2021/07/20 09:17:07;;;;;;;17.17;10.17;;;22.40;42.40;;;;;;5098742;28;20538;-79
2021/07/20 09:19:38;;;;;;;14.00;10.50;;;22.50;41.10;;;;;;5099750;28;20427;-78
2021/07/20 09:22:15;;;;;;;12.50;10.17;;;22.40;41.00;;;;;;5109558;28;20507;-78
2021/07/20 09:24:51;;;;;;;12.17;10.37;;;22.40;41.00;;;;;;5097102;28;20546;-79
2021/07/20 09:27:27;;;;;;;14.93;10.73;;;22.30;42.30;;;;;;5097806;28;20520;-79
2021/07/20 09:29:57;;;;;;;13.93;11.20;;;22.70;41.30;;;;;;5102656;28;20460;-79
2021/07/20 09:32:39;;;;;;;10.50;9.40;;;23.10;41.80;;;;;;5097961;28;20531;-79
2021/07/20 09:35:13;;;;;;;12.37;10.40;;;23.30;39.50;;;;;;5102374;28;20496;-78
2021/07/20 09:37:47;;;;;;;15.90;11.60;;;23.10;40.10;;;;;;5110610;28;20413;-79
2021/07/20 09:40:27;;;;;;;14.00;10.70;;;22.80;39.60;;;;;;5105773;28;20410;-79
2021/07/20 09:43:01;;;;;;;13.47;10.13;;;22.60;39.50;;;;;;5098467;28;20523;-79
2021/07/20 09:45:32;;;;;;;14.17;11.63;;;22.10;40.80;;;;;;5099153;28;20413;-79
2021/07/20 09:48:11;;;;;;;14.43;10.57;;;22.40;39.50;;;;;;5096204;28;20444;-78
2021/07/20 09:50:43;;;;;;;17.30;11.70;;;22.70;38.70;;;;;;5095200;28;20453;-79
2021/07/20 09:53:48;;;;;;;15.13;10.10;;;22.60;39.20;;;;;;5098446;28;20471;-79
2021/07/20 09:56:53;;;;;;;15.60;10.50;;;22.80;39.10;;;;;;5098487;28;20480;-79
2021/07/20 09:59:38;;;;;;;16.50;10.73;;;23.20;38.40;;;;;;5096248;28;20419;-78
2021/07/20 10:02:11;;;;;;;14.60;12.07;;;23.30;36.70;;;;;;5100118;28;20454;-79
2021/07/20 10:04:52;;;;;;;13.13;11.23;;;23.10;36.70;;;;;;5100828;28;20415;-79
2021/07/20 10:07:26;;;;;;;15.90;10.57;;;22.90;36.40;;;;;;5111080;28;20511;-83
2021/07/20 10:09:58;;;;;;;15.27;11.43;;;23.10;36.90;;;;;;5105306;28;20441;-80
2021/07/20 10:12:30;;;;;;;14.07;11.10;;;23.20;36.20;;;;;;5100651;28;20465;-80
2021/07/20 10:15:04;;;;;;;14.63;11.70;;;23.10;35.70;;;;;;5095501;28;20470;-79
2021/07/20 10:17:35;;;;;;;15.20;11.53;;;23.00;36.70;;;;;;5094054;28;20823;-78
2021/07/20 10:20:13;;;;;;;14.00;11.40;;;23.20;36.40;;;;;;5096587;28;20531;-77
2021/07/20 10:22:46;;;;;;;17.13;10.87;;;23.30;35.60;;;;;;5095108;28;20463;-81
2021/07/20 10:25:20;;;;;;;13.53;11.57;;;23.40;35.70;;;;;;5098607;28;20900;-78
2021/07/20 10:27:53;;;;;;;13.63;10.87;;;23.50;35.00;;;;;;5094663;28;20449;-78
2021/07/20 10:30:21;;;;;;;13.60;10.70;;;23.70;35.80;;;;;;5093229;28;20481;-78
2021/07/20 10:32:58;;;;;;;18.57;10.80;;;23.70;35.10;;;;;;5096279;28;20469;-78
2021/07/20 10:35:34;;;;;;;15.07;11.30;;;23.80;33.40;;;;;;5096076;28;20790;-79
2021/07/20 10:38:04;;;;;;;13.33;11.50;;;23.40;34.10;;;;;;5099499;28;20543;-79
2021/07/20 10:40:33;;;;;;;16.70;10.80;;;23.50;34.20;;;;;;5099898;28;20450;-77
2021/07/20 10:43:06;;;;;;;15.10;11.87;;;23.60;33.90;;;;;;5098274;28;20770;-77
2021/07/20 10:45:36;;;;;;;17.60;11.33;;;23.70;34.40;;;;;;5101372;28;20394;-77
2021/07/20 10:48:07;;;;;;;14.60;11.00;;;23.50;34.60;;;;;;5099090;28;20540;-79
2021/07/20 10:50:43;;;;;;;17.03;12.20;;;23.70;33.60;;;;;;5102794;28;20481;-80
2021/07/20 10:53:23;;;;;;;16.83;11.10;;;23.60;33.50;;;;;;5098105;28;20478;-80
2021/07/20 10:56:07;;;;;;;16.30;12.40;;;23.30;34.10;;;;;;5098455;28;20441;-78
2021/07/20 10:58:44;;;;;;;15.07;10.70;;;23.40;33.40;;;;;;5098285;28;20520;-78
2021/07/20 11:01:16;;;;;;;13.87;11.87;;;23.20;34.10;;;;;;5099511;28;20451;-80
2021/07/20 11:03:53;;;;;;;15.97;11.90;;;23.40;33.50;;;;;;5098578;28;20556;-79
2021/07/20 11:06:23;;;;;;;12.43;10.30;;;23.50;33.80;;;;;;5098400;28;20425;-79
2021/07/20 11:09:02;;;;;;;13.07;11.37;;;23.70;32.90;;;;;;5098655;28;20549;-78
2021/07/20 11:11:33;;;;;;;20.00;11.73;;;23.90;34.00;;;;;;5104774;28;20520;-80
2021/07/20 11:14:02;;;;;;;13.47;11.87;;;24.00;32.90;;;;;;5105180;28;20465;-80
2021/07/20 11:16:38;;;;;;;15.10;11.37;;;23.60;35.00;;;;;;5110185;27;20462;-77
2021/07/20 11:19:07;;;;;;;14.93;11.30;;;23.70;34.20;;;;;;5119016;27;20419;-81
2021/07/20 11:21:36;;;;;;;16.27;11.53;;;23.30;33.80;;;;;;5120339;27;20437;-78
2021/07/20 11:24:04;;;;;;;16.33;11.63;;;23.20;35.10;;;;;;5119618;27;20422;-76
2021/07/20 11:26:32;;;;;;;23.97;11.60;;;23.50;35.20;;;;;;5119627;27;20423;-77
2021/07/20 11:29:00;;;;;;;11.90;10.40;;;23.70;34.70;;;;;;5119446;27;20416;-77
2021/07/20 11:31:32;;;;;;;25.53;11.97;;;24.00;32.90;;;;;;5119985;27;20453;-78
2021/07/20 11:34:03;;;;;;;13.87;10.73;;;24.00;33.20;;;;;;5119401;27;20543;-76
2021/07/20 11:36:34;;;;;;;16.80;10.67;;;23.90;33.10;;;;;;5118877;28;20446;-80
2021/07/20 11:39:22;;;;;;;15.93;10.37;;;24.00;33.30;;;;;;5113300;28;20408;-80
2021/07/20 11:41:58;;;;;;;17.40;10.97;;;24.20;32.50;;;;;;5114752;28;20474;-79
2021/07/20 11:44:36;;;;;;;14.50;10.90;;;24.00;33.10;;;;;;5107813;28;20455;-79
2021/07/20 11:47:06;;;;;;;15.53;10.73;;;24.00;33.10;;;;;;5113787;28;20469;-79
2021/07/20 11:49:43;;;;;;;13.40;10.40;;;23.90;33.10;;;;;;5112523;28;20401;-80
2021/07/20 11:52:15;;;;;;;18.03;10.83;;;23.90;32.50;;;;;;5116748;28;20488;-79
2021/07/20 11:54:56;;;;;;;13.40;10.40;;;24.00;33.00;;;;;;5117398;28;20505;-79
2021/07/20 11:58:08;;;;;;;12.90;10.57;;;23.90;32.50;;;;;;5116291;28;20468;-77
2021/07/20 12:01:38;;;;;;;15.30;10.60;;;24.20;32.40;;;;;;5024458;28;20464;-79
2021/07/20 12:04:21;;;;;;;12.93;10.37;;;24.30;32.50;;;;;;5043537;28;20412;-80
2021/07/20 12:06:57;;;;;;;12.50;10.40;;;24.30;32.50;;;;;;5044958;28;20535;-79
2021/07/20 12:09:32;;;;;;;12.30;9.40;;;24.50;32.00;;;;;;5098597;28;20456;-78
2021/07/20 12:12:01;;;;;;;18.27;11.17;;;24.70;31.30;;;;;;5105584;28;20811;-80
2021/07/20 12:14:29;;;;;;;12.93;10.00;;;24.80;31.60;;;;;;5108951;28;20423;-80
2021/07/20 12:16:57;;;;;;;15.07;10.90;;;24.90;32.00;;;;;;5101827;28;20481;-80
2021/07/20 12:19:30;;;;;;;13.27;9.53;;;24.50;31.10;;;;;;5102773;28;20425;-81
2021/07/20 12:22:03;;;;;;;12.00;10.70;;;24.40;31.90;;;;;;5104648;28;20992;-79
2021/07/20 12:24:31;;;;;;;16.60;10.60;;;24.50;31.20;;;;;;5104828;28;20421;-78
2021/07/20 12:26:58;;;;;;;12.67;11.33;;;24.40;32.60;;;;;;5115502;28;20444;-79
2021/07/20 12:29:29;;;;;;;14.90;10.70;;;24.40;31.10;;;;;;5108187;28;20416;-78
2021/07/20 12:31:56;;;;;;;13.33;9.83;;;24.60;31.20;;;;;;5109775;28;20468;-77
2021/07/20 12:34:24;;;;;;;12.90;8.90;;;24.70;31.00;;;;;;5118015;27;20475;-77
2021/07/20 12:36:51;;;;;;;12.40;9.70;;;24.70;29.20;;;;;;5110851;28;20480;-80
2021/07/20 12:39:20;;;;;;;10.57;8.93;;;24.70;28.50;;;;;;5099222;28;20483;-79
2021/07/20 12:41:49;;;;;;;12.20;10.67;;;24.60;28.00;;;;;;5096593;28;20459;-79
2021/07/20 12:44:17;;;;;;;11.73;9.57;;;24.50;29.20;;;;;;5094952;28;20498;-78
2021/07/20 12:46:45;;;;;;;10.57;9.13;;;24.40;29.00;;;;;;5095049;28;20641;-79
2021/07/20 12:49:13;;;;;;;13.80;10.43;;;24.40;28.30;;;;;;5094979;28;20919;-79
2021/07/20 12:51:49;;;;;;;11.67;9.20;;;24.30;29.30;;;;;;5095206;28;20552;-79